sensor_id;sensor_type;location;lat;lon;timestamp;pressure;altitude;pressure_sealevel;temperature;humidity
12949;BME280;6539;49.476;8.484;2023-11-19T00:01:28;100409.72;;;8.74;100.00
12949;BME280;6539;49.476;8.484;2023-11-19T00:04:14;100416.75;;;8.79;100.00
12949;BME280;6539;49.476;8.484;2023-11-19T00:07:00;100425.75;;;8.79;100.00
12949;BME280;6539;49.476;8.484;2023-11-19T00:09:49;100419.88;;;8.77;100.00
12949;BME280;6539;49.476;8.484;2023-11-19T00:12:45;100415.19;;;8.74;100.00
12949;BME280;6539;49.476;8.484;2023-11-19T00:15:31;100406.97;;;8.74;100.00
12949;BME280;6539;49.476;8.484;2023-11-19T00:18:17;100403.84;;;8.76;100.00
12949;BME280;6539;49.476;8.484;2023-11-19T00:21:06;100396.41;;;8.76;100.00
12949;BME280;6539;49.476;8.484;2023-11-19T00:23:54;100386.25;;;8.73;100.00
12949;BME280;6539;49.476;8.484;2023-11-19T00:26:42;100378.44;;;8.72;100.00
12949;BME280;6539;49.476;8.484;2023-11-19T00:29:28;100355.75;;;8.71;100.00
12949;BME280;6539;49.476;8.484;2023-11-19T00:32:14;100371.78;;;8.69;100.00
12949;BME280;6539;49.476;8.484;2023-11-19T00:35:01;100379.22;;;8.72;100.00
12949;BME280;6539;49.476;8.484;2023-11-19T00:37:47;100366.31;;;8.69;100.00
12949;BME280;6539;49.476;8.484;2023-11-19T00:40:33;100370.22;;;8.68;100.00
12949;BME280;6539;49.476;8.484;2023-11-19T00:43:21;100365.50;;;8.76;100.00
12949;BME280;6539;49.476;8.484;2023-11-19T00:46:10;100368.25;;;8.76;100.00
12949;BME280;6539;49.476;8.484;2023-11-19T00:48:57;100374.91;;;8.78;100.00
12949;BME280;6539;49.476;8.484;2023-11-19T00:51:44;100370.22;;;8.79;100.00
12949;BME280;6539;49.476;8.484;2023-11-19T00:54:33;100377.66;;;8.82;100.00
12949;BME280;6539;49.476;8.484;2023-11-19T00:57:22;100376.06;;;8.81;100.00
12949;BME280;6539;49.476;8.484;2023-11-19T01:00:12;100374.09;;;8.85;100.00
12949;BME280;6539;49.476;8.484;2023-11-19T01:03:10;100376.44;;;8.86;100.00
12949;BME280;6539;49.476;8.484;2023-11-19T01:05:57;100376.06;;;8.88;100.00
12949;BME280;6539;49.476;8.484;2023-11-19T01:08:48;100377.25;;;8.90;100.00
12949;BME280;6539;49.476;8.484;2023-11-19T01:11:34;100375.66;;;8.89;100.00
12949;BME280;6539;49.476;8.484;2023-11-19T01:14:20;100368.59;;;8.95;100.00
12949;BME280;6539;49.476;8.484;2023-11-19T01:17:09;100359.22;;;8.96;100.00
12949;BME280;6539;49.476;8.484;2023-11-19T01:19:55;100369.78;;;8.98;100.00
12949;BME280;6539;49.476;8.484;2023-11-19T01:22:44;100363.13;;;8.95;100.00
12949;BME280;6539;49.476;8.484;2023-11-19T01:25:33;100366.28;;;8.94;100.00
12949;BME280;6539;49.476;8.484;2023-11-19T01:28:20;100365.50;;;8.97;100.00
12949;BME280;6539;49.476;8.484;2023-11-19T01:31:06;100367.03;;;8.98;100.00
12949;BME280;6539;49.476;8.484;2023-11-19T01:33:57;100365.06;;;9.02;100.00
12949;BME280;6539;49.476;8.484;2023-11-19T01:36:46;100379.94;;;9.01;100.00
12949;BME280;6539;49.476;8.484;2023-11-19T01:39:32;100389.72;;;9.02;100.00
12949;BME280;6539;49.476;8.484;2023-11-19T01:42:18;100384.63;;;9.07;100.00
12949;BME280;6539;49.476;8.484;2023-11-19T01:45:07;100382.28;;;9.09;100.00
12949;BME280;6539;49.476;8.484;2023-11-19T01:47:55;100366.22;;;9.11;100.00
12949;BME280;6539;49.476;8.484;2023-11-19T01:50:44;100346.69;;;9.09;100.00
12949;BME280;6539;49.476;8.484;2023-11-19T01:53:31;100362.69;;;9.14;100.00
12949;BME280;6539;49.476;8.484;2023-11-19T01:56:22;100340.78;;;9.14;100.00
12949;BME280;6539;49.476;8.484;2023-11-19T01:59:12;100343.50;;;9.14;100.00
12949;BME280;6539;49.476;8.484;2023-11-19T02:01:59;100357.59;;;9.16;100.00
12949;BME280;6539;49.476;8.484;2023-11-19T02:04:49;100349.38;;;9.20;100.00
12949;BME280;6539;49.476;8.484;2023-11-19T02:07:35;100331.38;;;9.23;100.00
12949;BME280;6539;49.476;8.484;2023-11-19T02:10:21;100320.41;;;9.23;100.00
12949;BME280;6539;49.476;8.484;2023-11-19T02:13:10;100302.03;;;9.19;100.00
12949;BME280;6539;49.476;8.484;2023-11-19T02:16:02;100312.97;;;9.23;100.00
12949;BME280;6539;49.476;8.484;2023-11-19T02:18:51;100305.94;;;9.22;100.00
12949;BME280;6539;49.476;8.484;2023-11-19T02:21:39;100305.53;;;9.23;100.00
12949;BME280;6539;49.476;8.484;2023-11-19T02:24:31;100319.22;;;9.27;100.00
12949;BME280;6539;49.476;8.484;2023-11-19T02:27:55;100314.50;;;9.31;100.00
12949;BME280;6539;49.476;8.484;2023-11-19T02:30:44;100314.91;;;9.33;100.00
12949;BME280;6539;49.476;8.484;2023-11-19T02:33:30;100314.50;;;9.35;100.00
12949;BME280;6539;49.476;8.484;2023-11-19T02:36:16;100314.09;;;9.40;100.00
12949;BME280;6539;49.476;8.484;2023-11-19T02:39:03;100318.38;;;9.41;100.00
12949;BME280;6539;49.476;8.484;2023-11-19T02:41:56;100310.53;;;9.43;100.00
12949;BME280;6539;49.476;8.484;2023-11-19T02:44:45;100300.31;;;9.47;100.00
12949;BME280;6539;49.476;8.484;2023-11-19T02:47:32;100299.94;;;9.45;100.00
12949;BME280;6539;49.476;8.484;2023-11-19T02:50:20;100298.00;;;9.49;100.00
12949;BME280;6539;49.476;8.484;2023-11-19T02:53:10;100299.53;;;9.50;100.00
12949;BME280;6539;49.476;8.484;2023-11-19T02:56:00;100301.09;;;9.51;100.00
12949;BME280;6539;49.476;8.484;2023-11-19T02:58:52;100294.84;;;9.50;100.00
12949;BME280;6539;49.476;8.484;2023-11-19T03:01:41;100279.19;;;9.51;100.00
12949;BME280;6539;49.476;8.484;2023-11-19T03:04:31;100269.00;;;9.51;100.00
12949;BME280;6539;49.476;8.484;2023-11-19T03:07:17;100257.66;;;9.53;100.00
12949;BME280;6539;49.476;8.484;2023-11-19T03:10:04;100271.72;;;9.55;100.00
12949;BME280;6539;49.476;8.484;2023-11-19T03:12:51;100270.91;;;9.58;100.00
12949;BME280;6539;49.476;8.484;2023-11-19T03:15:40;100264.63;;;9.61;100.00
12949;BME280;6539;49.476;8.484;2023-11-19T03:18:31;100257.94;;;9.65;100.00
12949;BME280;6539;49.476;8.484;2023-11-19T03:21:17;100263.00;;;9.67;100.00
12949;BME280;6539;49.476;8.484;2023-11-19T03:24:03;100255.53;;;9.71;100.00
12949;BME280;6539;49.476;8.484;2023-11-19T03:26:49;100255.53;;;9.74;100.00
12949;BME280;6539;49.476;8.484;2023-11-19T03:29:38;100259.03;;;9.75;100.00
12949;BME280;6539;49.476;8.484;2023-11-19T03:32:27;100260.19;;;9.77;100.00
12949;BME280;6539;49.476;8.484;2023-11-19T03:35:13;100259.41;;;9.80;100.00
12949;BME280;6539;49.476;8.484;2023-11-19T03:37:59;100257.03;;;9.82;100.00
12949;BME280;6539;49.476;8.484;2023-11-19T03:40:49;100256.25;;;9.85;100.00
12949;BME280;6539;49.476;8.484;2023-11-19T03:43:35;100251.88;;;9.88;100.00
12949;BME280;6539;49.476;8.484;2023-11-19T03:46:23;100226.03;;;9.89;100.00
12949;BME280;6539;49.476;8.484;2023-11-19T03:49:13;100235.44;;;9.91;100.00
12949;BME280;6539;49.476;8.484;2023-11-19T03:52:02;100231.09;;;9.94;100.00
12949;BME280;6539;49.476;8.484;2023-11-19T03:54:50;100229.91;;;9.95;100.00
12949;BME280;6539;49.476;8.484;2023-11-19T03:57:36;100232.66;;;9.95;100.00
12949;BME280;6539;49.476;8.484;2023-11-19T04:00:22;100233.41;;;9.99;100.00
12949;BME280;6539;49.476;8.484;2023-11-19T04:03:08;100223.94;;;10.04;100.00
12949;BME280;6539;49.476;8.484;2023-11-19T04:05:54;100220.41;;;10.07;100.00
12949;BME280;6539;49.476;8.484;2023-11-19T04:08:49;100225.84;;;10.10;100.00
12949;BME280;6539;49.476;8.484;2023-11-19T04:11:38;100224.31;;;10.13;100.00
12949;BME280;6539;49.476;8.484;2023-11-19T04:14:26;100229.38;;;10.14;100.00
12949;BME280;6539;49.476;8.484;2023-11-19T04:17:12;100247.41;;;10.15;100.00
12949;BME280;6539;49.476;8.484;2023-11-19T04:20:01;100246.56;;;10.18;100.00
12949;BME280;6539;49.476;8.484;2023-11-19T04:22:47;100243.81;;;10.18;100.00
12949;BME280;6539;49.476;8.484;2023-11-19T04:25:36;100248.09;;;10.26;100.00
12949;BME280;6539;49.476;8.484;2023-11-19T04:28:25;100255.16;;;10.24;100.00
12949;BME280;6539;49.476;8.484;2023-11-19T04:31:13;100232.38;;;10.27;100.00
12949;BME280;6539;49.476;8.484;2023-11-19T04:34:00;100233.91;;;10.31;100.00
12949;BME280;6539;49.476;8.484;2023-11-19T04:36:48;100228.41;;;10.35;100.00
12949;BME280;6539;49.476;8.484;2023-11-19T04:39:35;100236.59;;;10.38;100.00
12949;BME280;6539;49.476;8.484;2023-11-19T04:42:24;100231.03;;;10.42;100.00
12949;BME280;6539;49.476;8.484;2023-11-19T04:45:10;100231.84;;;10.42;100.00
12949;BME280;6539;49.476;8.484;2023-11-19T04:47:56;100230.66;;;10.43;100.00
12949;BME280;6539;49.476;8.484;2023-11-19T04:50:46;100218.84;;;10.46;100.00
12949;BME280;6539;49.476;8.484;2023-11-19T04:53:32;100227.44;;;10.48;100.00
12949;BME280;6539;49.476;8.484;2023-11-19T04:56:18;100221.16;;;10.51;100.00
12949;BME280;6539;49.476;8.484;2023-11-19T04:59:06;100210.19;;;10.51;100.00
12949;BME280;6539;49.476;8.484;2023-11-19T05:01:52;100212.88;;;10.55;100.00
12949;BME280;6539;49.476;8.484;2023-11-19T05:04:43;100218.72;;;10.57;100.00
12949;BME280;6539;49.476;8.484;2023-11-19T05:07:32;100225.75;;;10.61;100.00
12949;BME280;6539;49.476;8.484;2023-11-19T05:10:22;100231.16;;;10.68;100.00
12949;BME280;6539;49.476;8.484;2023-11-19T05:13:08;100234.28;;;10.70;100.00
12949;BME280;6539;49.476;8.484;2023-11-19T05:15:54;100243.66;;;10.73;100.00
12949;BME280;6539;49.476;8.484;2023-11-19T05:18:43;100235.00;;;10.74;100.00
12949;BME280;6539;49.476;8.484;2023-11-19T05:21:29;100234.94;;;10.82;100.00
12949;BME280;6539;49.476;8.484;2023-11-19T05:24:15;100232.91;;;10.86;100.00
12949;BME280;6539;49.476;8.484;2023-11-19T05:27:01;100234.13;;;10.85;100.00
12949;BME280;6539;49.476;8.484;2023-11-19T05:29:47;100231.31;;;10.88;100.00
12949;BME280;6539;49.476;8.484;2023-11-19T05:32:36;100228.16;;;10.90;100.00
12949;BME280;6539;49.476;8.484;2023-11-19T05:35:24;100228.56;;;10.88;100.00
12949;BME280;6539;49.476;8.484;2023-11-19T05:38:13;100222.28;;;10.88;100.00
12949;BME280;6539;49.476;8.484;2023-11-19T05:41:03;100219.91;;;10.90;100.00
12949;BME280;6539;49.476;8.484;2023-11-19T05:43:51;100220.66;;;10.94;100.00
12949;BME280;6539;49.476;8.484;2023-11-19T05:46:37;100214.75;;;10.95;100.00
12949;BME280;6539;49.476;8.484;2023-11-19T05:49:31;100218.25;;;10.96;100.00
12949;BME280;6539;49.476;8.484;2023-11-19T05:52:17;100204.13;;;10.97;100.00
12949;BME280;6539;49.476;8.484;2023-11-19T05:55:06;100191.22;;;10.94;100.00
12949;BME280;6539;49.476;8.484;2023-11-19T05:57:55;100189.19;;;10.98;100.00
12949;BME280;6539;49.476;8.484;2023-11-19T06:00:41;100194.69;;;10.98;100.00
12949;BME280;6539;49.476;8.484;2023-11-19T06:03:30;100187.53;;;11.04;100.00
12949;BME280;6539;49.476;8.484;2023-11-19T06:06:16;100194.88;;;11.14;100.00
12949;BME280;6539;49.476;8.484;2023-11-19T06:09:05;100194.41;;;11.19;100.00
12949;BME280;6539;49.476;8.484;2023-11-19T06:11:52;100198.72;;;11.20;100.00
12949;BME280;6539;49.476;8.484;2023-11-19T06:14:38;100213.13;;;11.28;100.00
12949;BME280;6539;49.476;8.484;2023-11-19T06:17:29;100207.22;;;11.29;100.00
12949;BME280;6539;49.476;8.484;2023-11-19T06:20:15;100206.75;;;11.34;100.00
12949;BME280;6539;49.476;8.484;2023-11-19T06:23:03;100209.09;;;11.36;100.00
12949;BME280;6539;49.476;8.484;2023-11-19T06:25:49;100210.63;;;11.37;100.00
12949;BME280;6539;49.476;8.484;2023-11-19T06:28:38;100217.28;;;11.39;100.00
12949;BME280;6539;49.476;8.484;2023-11-19T06:31:26;100203.91;;;11.41;100.00
12949;BME280;6539;49.476;8.484;2023-11-19T06:34:12;100204.31;;;11.40;100.00
12949;BME280;6539;49.476;8.484;2023-11-19T06:36:59;100214.84;;;11.45;100.00
12949;BME280;6539;49.476;8.484;2023-11-19T06:39:45;100217.53;;;11.48;100.00
12949;BME280;6539;49.476;8.484;2023-11-19T06:42:31;100208.09;;;11.49;100.00
12949;BME280;6539;49.476;8.484;2023-11-19T06:45:17;100215.16;;;11.50;100.00
12949;BME280;6539;49.476;8.484;2023-11-19T06:48:06;100220.94;;;11.56;100.00
12949;BME280;6539;49.476;8.484;2023-11-19T06:50:53;100220.91;;;11.60;100.00
12949;BME280;6539;49.476;8.484;2023-11-19T06:53:39;100227.22;;;11.57;100.00
12949;BME280;6539;49.476;8.484;2023-11-19T06:56:26;100240.94;;;11.60;100.00
12949;BME280;6539;49.476;8.484;2023-11-19T06:59:12;100232.19;;;11.65;100.00
12949;BME280;6539;49.476;8.484;2023-11-19T07:01:58;100241.66;;;11.64;100.00
12949;BME280;6539;49.476;8.484;2023-11-19T07:04:45;100251.84;;;11.67;100.00
12949;BME280;6539;49.476;8.484;2023-11-19T07:07:32;100242.13;;;11.59;100.00
12949;BME280;6539;49.476;8.484;2023-11-19T07:10:23;100234.59;;;11.63;100.00
12949;BME280;6539;49.476;8.484;2023-11-19T07:13:10;100243.19;;;11.65;100.00
12949;BME280;6539;49.476;8.484;2023-11-19T07:15:56;100233.31;;;11.71;100.00
12949;BME280;6539;49.476;8.484;2023-11-19T07:18:49;100243.19;;;11.65;100.00
12949;BME280;6539;49.476;8.484;2023-11-19T07:21:41;100253.91;;;11.86;100.00
12949;BME280;6539;49.476;8.484;2023-11-19T07:24:29;100258.09;;;11.94;100.00
12949;BME280;6539;49.476;8.484;2023-11-19T07:27:18;100258.28;;;12.07;100.00
12949;BME280;6539;49.476;8.484;2023-11-19T07:30:06;100258.81;;;12.21;100.00
12949;BME280;6539;49.476;8.484;2023-11-19T07:32:58;100259.66;;;12.42;100.00
12949;BME280;6539;49.476;8.484;2023-11-19T07:35:44;100258.94;;;12.57;100.00
12949;BME280;6539;49.476;8.484;2023-11-19T07:38:32;100259.84;;;12.74;100.00
12949;BME280;6539;49.476;8.484;2023-11-19T07:41:18;100267.22;;;12.77;100.00
12949;BME280;6539;49.476;8.484;2023-11-19T07:44:05;100265.00;;;12.72;100.00
12949;BME280;6539;49.476;8.484;2023-11-19T07:46:52;100268.94;;;12.71;100.00
12949;BME280;6539;49.476;8.484;2023-11-19T07:49:38;100271.41;;;12.65;100.00
12949;BME280;6539;49.476;8.484;2023-11-19T07:52:27;100265.78;;;12.49;100.00
12949;BME280;6539;49.476;8.484;2023-11-19T07:55:20;100273.47;;;12.38;100.00
12949;BME280;6539;49.476;8.484;2023-11-19T07:58:11;100283.47;;;12.29;100.00
12949;BME280;6539;49.476;8.484;2023-11-19T08:01:00;100273.56;;;12.11;100.00
12949;BME280;6539;49.476;8.484;2023-11-19T08:03:49;100281.13;;;12.04;100.00
12949;BME280;6539;49.476;8.484;2023-11-19T08:06:40;100280.88;;;11.95;100.00
12949;BME280;6539;49.476;8.484;2023-11-19T08:09:26;100296.66;;;11.91;100.00
12949;BME280;6539;49.476;8.484;2023-11-19T08:12:13;100297.09;;;11.89;100.00
12949;BME280;6539;49.476;8.484;2023-11-19T08:15:05;100305.41;;;11.86;100.00
12949;BME280;6539;49.476;8.484;2023-11-19T08:17:51;100304.19;;;11.87;100.00
12949;BME280;6539;49.476;8.484;2023-11-19T08:20:39;100289.72;;;11.83;100.00
12949;BME280;6539;49.476;8.484;2023-11-19T08:23:30;100292.31;;;11.93;100.00
12949;BME280;6539;49.476;8.484;2023-11-19T08:26:16;100283.63;;;11.95;100.00
12949;BME280;6539;49.476;8.484;2023-11-19T08:29:03;100282.44;;;11.96;100.00
12949;BME280;6539;49.476;8.484;2023-11-19T08:31:49;100278.09;;;11.98;100.00
12949;BME280;6539;49.476;8.484;2023-11-19T08:34:35;100260.63;;;12.08;100.00
12949;BME280;6539;49.476;8.484;2023-11-19T08:37:21;100259.28;;;12.16;100.00
12949;BME280;6539;49.476;8.484;2023-11-19T08:40:11;100257.28;;;12.20;100.00
12949;BME280;6539;49.476;8.484;2023-11-19T08:42:58;100269.41;;;12.23;100.00
12949;BME280;6539;49.476;8.484;2023-11-19T08:45:46;100280.63;;;12.36;100.00
12949;BME280;6539;49.476;8.484;2023-11-19T08:48:35;100288.72;;;12.66;100.00
12949;BME280;6539;49.476;8.484;2023-11-19T08:51:27;100293.25;;;12.76;100.00
12949;BME280;6539;49.476;8.484;2023-11-19T08:54:16;100295.69;;;13.13;100.00
12949;BME280;6539;49.476;8.484;2023-11-19T08:57:04;100286.63;;;13.32;100.00
12949;BME280;6539;49.476;8.484;2023-11-19T08:59:55;100299.84;;;13.41;100.00
12949;BME280;6539;49.476;8.484;2023-11-19T09:02:41;100291.19;;;13.74;100.00
12949;BME280;6539;49.476;8.484;2023-11-19T09:05:28;100294.06;;;14.03;100.00
12949;BME280;6539;49.476;8.484;2023-11-19T09:08:17;100304.56;;;14.08;100.00
12949;BME280;6539;49.476;8.484;2023-11-19T09:11:07;100305.19;;;14.16;100.00
12949;BME280;6539;49.476;8.484;2023-11-19T09:13:54;100318.41;;;14.24;100.00
12949;BME280;6539;49.476;8.484;2023-11-19T09:16:42;100314.28;;;14.32;100.00
12949;BME280;6539;49.476;8.484;2023-11-19T09:19:32;100319.13;;;14.44;100.00
12949;BME280;6539;49.476;8.484;2023-11-19T09:22:18;100306.66;;;14.52;98.13
12949;BME280;6539;49.476;8.484;2023-11-19T09:25:04;100323.75;;;14.64;98.56
12949;BME280;6539;49.476;8.484;2023-11-19T09:27:50;100314.66;;;15.20;93.37
12949;BME280;6539;49.476;8.484;2023-11-19T09:30:39;100311.16;;;15.33;92.49
12949;BME280;6539;49.476;8.484;2023-11-19T09:33:25;100320.63;;;15.48;87.85
12949;BME280;6539;49.476;8.484;2023-11-19T09:36:12;100324.84;;;15.23;91.01
12949;BME280;6539;49.476;8.484;2023-11-19T09:38:59;100312.16;;;15.26;91.78
12949;BME280;6539;49.476;8.484;2023-11-19T09:41:52;100310.88;;;15.14;85.89
12949;BME280;6539;49.476;8.484;2023-11-19T09:44:39;100325.31;;;14.93;89.24
12949;BME280;6539;49.476;8.484;2023-11-19T09:47:31;100311.25;;;14.88;91.88
12949;BME280;6539;49.476;8.484;2023-11-19T09:50:20;100319.13;;;14.73;94.31
12949;BME280;6539;49.476;8.484;2023-11-19T09:53:06;100305.91;;;14.81;92.47
12949;BME280;6539;49.476;8.484;2023-11-19T09:55:53;100322.56;;;14.77;93.38
12949;BME280;6539;49.476;8.484;2023-11-19T09:58:41;100322.78;;;14.70;94.55
12949;BME280;6539;49.476;8.484;2023-11-19T10:01:30;100316.75;;;14.59;96.47
12949;BME280;6539;49.476;8.484;2023-11-19T10:04:19;100317.72;;;14.52;98.43
12949;BME280;6539;49.476;8.484;2023-11-19T10:07:05;100324.19;;;14.46;100.00
12949;BME280;6539;49.476;8.484;2023-11-19T10:09:51;100325.16;;;14.39;100.00
12949;BME280;6539;49.476;8.484;2023-11-19T10:12:38;100320.47;;;14.52;100.00
12949;BME280;6539;49.476;8.484;2023-11-19T10:15:27;100327.34;;;14.77;100.00
12949;BME280;6539;49.476;8.484;2023-11-19T10:18:16;100332.41;;;15.36;95.84
12949;BME280;6539;49.476;8.484;2023-11-19T10:21:02;100333.25;;;15.49;93.04
12949;BME280;6539;49.476;8.484;2023-11-19T10:23:51;100325.97;;;15.26;91.72
12949;BME280;6539;49.476;8.484;2023-11-19T10:26:38;100316.19;;;15.09;89.57
12949;BME280;6539;49.476;8.484;2023-11-19T10:29:26;100320.53;;;15.22;90.04
12949;BME280;6539;49.476;8.484;2023-11-19T10:32:15;100327.94;;;15.13;88.68
12949;BME280;6539;49.476;8.484;2023-11-19T10:35:07;100309.03;;;15.11;90.37
12949;BME280;6539;49.476;8.484;2023-11-19T10:37:54;100309.59;;;15.32;89.85
12949;BME280;6539;49.476;8.484;2023-11-19T10:40:42;100312.34;;;15.73;87.54
12949;BME280;6539;49.476;8.484;2023-11-19T10:43:31;100307.59;;;15.61;87.83
12949;BME280;6539;49.476;8.484;2023-11-19T10:46:17;100308.72;;;15.76;87.18
12949;BME280;6539;49.476;8.484;2023-11-19T10:49:10;100310.69;;;15.88;85.50
12949;BME280;6539;49.476;8.484;2023-11-19T10:51:58;100300.94;;;15.96;83.67
12949;BME280;6539;49.476;8.484;2023-11-19T10:54:50;100297.28;;;15.49;87.40
12949;BME280;6539;49.476;8.484;2023-11-19T10:57:46;100291.44;;;15.18;89.94
12949;BME280;6539;49.476;8.484;2023-11-19T11:00:55;100279.28;;;15.15;90.52
12949;BME280;6539;49.476;8.484;2023-11-19T11:03:45;100288.63;;;15.05;92.07
12949;BME280;6539;49.476;8.484;2023-11-19T11:06:35;100270.16;;;15.02;92.87
12949;BME280;6539;49.476;8.484;2023-11-19T11:09:23;100285.63;;;15.00;93.46
12949;BME280;6539;49.476;8.484;2023-11-19T11:12:10;100271.16;;;14.96;93.87
12949;BME280;6539;49.476;8.484;2023-11-19T11:14:59;100275.06;;;14.82;95.48
12949;BME280;6539;49.476;8.484;2023-11-19T11:17:46;100290.53;;;14.80;96.16
12949;BME280;6539;49.476;8.484;2023-11-19T11:20:35;100274.91;;;14.73;97.26
12949;BME280;6539;49.476;8.484;2023-11-19T11:36:22;100281.50;;;14.79;88.11
12949;BME280;6539;49.476;8.484;2023-11-19T11:39:09;100272.56;;;14.88;87.65
12949;BME280;6539;49.476;8.484;2023-11-19T11:45:13;100269.50;;;14.98;85.99
12949;BME280;6539;49.476;8.484;2023-11-19T11:48:19;100267.47;;;14.99;84.36
12949;BME280;6539;49.476;8.484;2023-11-19T11:51:08;100271.78;;;15.28;81.63
12949;BME280;6539;49.476;8.484;2023-11-19T11:53:58;100265.19;;;15.51;79.93
12949;BME280;6539;49.476;8.484;2023-11-19T11:59:49;100268.59;;;15.68;78.58
12949;BME280;6539;49.476;8.484;2023-11-19T12:02:35;100262.41;;;15.76;78.24
12949;BME280;6539;49.476;8.484;2023-11-19T12:05:24;100260.19;;;15.96;76.39
12949;BME280;6539;49.476;8.484;2023-11-19T12:08:14;100252.91;;;15.77;74.60
12949;BME280;6539;49.476;8.484;2023-11-19T12:11:06;100252.00;;;15.68;75.10
12949;BME280;6539;49.476;8.484;2023-11-19T12:13:56;100248.38;;;15.71;73.20
12949;BME280;6539;49.476;8.484;2023-11-19T12:16:44;100247.03;;;15.63;73.74
12949;BME280;6539;49.476;8.484;2023-11-19T12:19:31;100247.03;;;15.50;74.34
12949;BME280;6539;49.476;8.484;2023-11-19T12:22:17;100244.38;;;15.47;73.44
12949;BME280;6539;49.476;8.484;2023-11-19T12:25:09;100253.44;;;15.47;72.56
12949;BME280;6539;49.476;8.484;2023-11-19T12:27:57;100241.91;;;15.36;73.73
12949;BME280;6539;49.476;8.484;2023-11-19T12:30:45;100250.13;;;15.40;73.12
12949;BME280;6539;49.476;8.484;2023-11-19T12:33:31;100247.56;;;15.33;74.73
12949;BME280;6539;49.476;8.484;2023-11-19T12:36:23;100243.34;;;15.41;72.71
12949;BME280;6539;49.476;8.484;2023-11-19T12:39:09;100237.59;;;15.35;74.47
12949;BME280;6539;49.476;8.484;2023-11-19T12:42:01;100237.63;;;15.48;72.61
12949;BME280;6539;49.476;8.484;2023-11-19T12:44:56;100234.84;;;15.35;73.97
12949;BME280;6539;49.476;8.484;2023-11-19T12:47:45;100231.81;;;15.29;71.44
12949;BME280;6539;49.476;8.484;2023-11-19T12:50:57;100225.63;;;15.25;71.45
12949;BME280;6539;49.476;8.484;2023-11-19T12:56:40;100212.78;;;15.19;70.29
12949;BME280;6539;49.476;8.484;2023-11-19T12:59:28;100210.34;;;15.21;71.29
12949;BME280;6539;49.476;8.484;2023-11-19T13:02:16;100209.34;;;15.15;71.04
12949;BME280;6539;49.476;8.484;2023-11-19T13:05:31;100213.91;;;15.21;71.10
12949;BME280;6539;49.476;8.484;2023-11-19T13:08:18;100214.78;;;15.18;71.12
12949;BME280;6539;49.476;8.484;2023-11-19T13:11:05;100216.88;;;15.27;71.24
12949;BME280;6539;49.476;8.484;2023-11-19T13:14:01;100214.91;;;15.40;69.79
12949;BME280;6539;49.476;8.484;2023-11-19T13:16:50;100206.81;;;15.20;71.03
12949;BME280;6539;49.476;8.484;2023-11-19T13:19:38;100208.56;;;15.14;71.42
12949;BME280;6539;49.476;8.484;2023-11-19T13:22:24;100204.16;;;15.04;71.50
12949;BME280;6539;49.476;8.484;2023-11-19T13:25:10;100201.38;;;15.04;71.44
12949;BME280;6539;49.476;8.484;2023-11-19T13:28:00;100201.41;;;15.17;71.29
12949;BME280;6539;49.476;8.484;2023-11-19T13:30:46;100190.91;;;15.24;71.20
12949;BME280;6539;49.476;8.484;2023-11-19T13:33:37;100192.59;;;15.47;70.28
12949;BME280;6539;49.476;8.484;2023-11-19T13:36:24;100200.75;;;15.51;70.01
12949;BME280;6539;49.476;8.484;2023-11-19T13:39:15;100211.25;;;15.31;70.07
12949;BME280;6539;49.476;8.484;2023-11-19T13:42:10;100205.94;;;15.23;66.89
12949;BME280;6539;49.476;8.484;2023-11-19T13:44:59;100192.69;;;15.31;66.72
12949;BME280;6539;49.476;8.484;2023-11-19T13:47:46;100191.44;;;15.32;65.81
12949;BME280;6539;49.476;8.484;2023-11-19T13:50:34;100182.69;;;15.34;65.67
12949;BME280;6539;49.476;8.484;2023-11-19T13:53:21;100178.59;;;15.38;65.93
12949;BME280;6539;49.476;8.484;2023-11-19T13:56:12;100178.41;;;15.33;66.59
12949;BME280;6539;49.476;8.484;2023-11-19T13:58:58;100172.22;;;15.28;66.94
12949;BME280;6539;49.476;8.484;2023-11-19T14:01:44;100177.16;;;15.21;67.18
12949;BME280;6539;49.476;8.484;2023-11-19T14:04:31;100178.16;;;15.14;68.21
12949;BME280;6539;49.476;8.484;2023-11-19T14:07:17;100171.84;;;15.14;68.85
12949;BME280;6539;49.476;8.484;2023-11-19T14:10:04;100184.25;;;15.09;68.32
12949;BME280;6539;49.476;8.484;2023-11-19T14:12:54;100181.50;;;15.09;67.84
12949;BME280;6539;49.476;8.484;2023-11-19T14:15:45;100173.63;;;15.08;67.63
12949;BME280;6539;49.476;8.484;2023-11-19T14:18:33;100179.28;;;15.17;65.59
12949;BME280;6539;49.476;8.484;2023-11-19T14:21:23;100193.88;;;15.17;64.47
12949;BME280;6539;49.476;8.484;2023-11-19T14:24:09;100198.19;;;15.18;64.21
12949;BME280;6539;49.476;8.484;2023-11-19T14:26:57;100197.84;;;15.29;63.95
12949;BME280;6539;49.476;8.484;2023-11-19T14:29:46;100197.66;;;15.23;64.29
12949;BME280;6539;49.476;8.484;2023-11-19T14:32:35;100202.19;;;15.17;63.93
12949;BME280;6539;49.476;8.484;2023-11-19T14:35:26;100207.06;;;15.26;63.72
12949;BME280;6539;49.476;8.484;2023-11-19T14:38:15;100205.94;;;15.23;63.69
12949;BME280;6539;49.476;8.484;2023-11-19T14:41:02;100198.97;;;15.19;65.00
12949;BME280;6539;49.476;8.484;2023-11-19T14:43:48;100212.25;;;15.11;65.32
12949;BME280;6539;49.476;8.484;2023-11-19T14:46:34;100201.72;;;15.19;64.55
12949;BME280;6539;49.476;8.484;2023-11-19T14:49:20;100197.97;;;15.13;65.04
12949;BME280;6539;49.476;8.484;2023-11-19T14:52:11;100206.47;;;15.18;65.22
12949;BME280;6539;49.476;8.484;2023-11-19T14:55:00;100224.69;;;15.03;65.58
12949;BME280;6539;49.476;8.484;2023-11-19T14:57:48;100212.91;;;15.03;66.06
12949;BME280;6539;49.476;8.484;2023-11-19T15:00:36;100215.44;;;15.10;65.06
12949;BME280;6539;49.476;8.484;2023-11-19T15:03:24;100220.06;;;15.00;65.84
12949;BME280;6539;49.476;8.484;2023-11-19T15:06:11;100216.97;;;14.98;65.58
12949;BME280;6539;49.476;8.484;2023-11-19T15:08:57;100219.59;;;14.89;65.88
12949;BME280;6539;49.476;8.484;2023-11-19T15:11:43;100217.03;;;14.82;66.23